100LL.CA
Aviation Fuel Pricing for Canadians
Please upgrade your browser - Tested with IE9, FireFox, Chrome, Safari

Fuel Airports Other Help
Prices Economy Info List METAR/TAF Kneeboard Help

Reference Airport: KINGSTON, ON
N 44 13 34.6755  W 076 35 48.1243
Provinces to show:

CYGK KINGSTON, ON
WEATHER
METARCYGK 230200Z 18009KT 4SM BR FEW003 OVC010 02/02 A2963 RMK SF2ST6 SLP039
TAFTAF AMD CYGK 230235Z 2302/2304 18012KT 6SM BR OVC010 TEMPO 2302/2304 2SM -DZ BR OVC003 RMK NXT FCST BY 231300Z
OTHER SITES

FlightAware

FltPlan

Google Maps

SkyVector
FUEL
FBO 100LL
member
100LL
public
JETA MOGAS
Central Airways (2022-06-27)3.1502.840
Canada Flight Supplement - CYGK
(opens in new tab/window)


Please Send Updates!

Desktop Version ]  [ Mobile Version ]  [ Disclaimer ]